Time;durP1;ratioP1;P1;durP2;ratioP2;P2;SDS_P1;SDS_P2;PMS_P1;PMS_P2;Temp;Humidity;BMP_temperature;BMP_pressure;BME280_temperature;BME280_humidity;BME280_pressure;Samples;Min_cycle;Max_cycle;Signal;HPM_P1;HPM_P2
2022/05/01 00:02:08;;;;;;;8.10;7.28;;;;;;;10.85;100.00;99757.38;5072730;28;20094;-79
2022/05/01 00:04:34;;;;;;;8.80;7.60;;;;;;;10.79;100.00;99765.84;5073084;28;20068;-80
2022/05/01 00:06:59;;;;;;;7.88;7.00;;;;;;;10.71;100.00;99760.44;5072916;28;20120;-80
2022/05/01 00:09:25;;;;;;;8.25;7.55;;;;;;;10.64;100.00;99761.97;5073569;28;20387;-80
2022/05/01 00:11:51;;;;;;;8.13;7.43;;;;;;;10.55;100.00;99755.69;5073117;28;20104;-80
2022/05/01 00:14:17;;;;;;;8.40;7.53;;;;;;;10.50;100.00;99757.06;5073875;28;20024;-81
2022/05/01 00:16:43;;;;;;;8.88;7.25;;;;;;;10.47;100.00;99755.56;5073525;28;20183;-81
2022/05/01 00:19:09;;;;;;;8.18;7.43;;;;;;;10.47;100.00;99762.63;5073138;28;20036;-79
2022/05/01 00:21:38;;;;;;;7.95;7.13;;;;;;;10.45;100.00;99754.00;5055159;28;20123;-80
2022/05/01 00:24:37;;;;;;;8.32;6.93;;;;;;;10.46;100.00;99755.69;5072494;28;20032;-81
2022/05/01 00:27:03;;;;;;;10.82;6.25;;;;;;;10.53;100.00;99751.53;5069458;28;20047;-80
2022/05/01 00:29:30;;;;;;;8.07;6.30;;;;;;;10.53;100.00;99752.38;5076736;28;20025;-79
2022/05/01 00:31:56;;;;;;;10.15;7.63;;;;;;;10.58;100.00;99741.41;5085006;28;20054;-80
2022/05/01 00:37:05;;;;;;;7.35;6.65;;;;;;;10.56;100.00;99743.34;5085774;28;20036;-78
2022/05/01 00:39:31;;;;;;;8.90;8.10;;;;;;;10.32;100.00;99748.16;5087856;28;20041;-77
2022/05/01 00:41:56;;;;;;;9.23;8.25;;;;;;;10.15;100.00;99747.81;5086306;28;20008;-81
2022/05/01 00:44:22;;;;;;;13.18;8.70;;;;;;;10.00;100.00;99743.91;5084029;28;20032;-80
2022/05/01 00:46:52;;;;;;;10.75;9.60;;;;;;;9.86;100.00;99746.91;5087838;28;20093;-79
2022/05/01 00:49:20;;;;;;;11.52;9.40;;;;;;;9.76;100.00;99751.31;5087967;28;20021;-79
2022/05/01 00:51:55;;;;;;;13.10;8.95;;;;;;;9.71;100.00;99748.25;5079249;28;20041;-80
2022/05/01 00:54:23;;;;;;;11.70;8.95;;;;;;;9.66;100.00;99745.19;5076005;28;20036;-80
2022/05/01 00:56:50;;;;;;;9.68;8.65;;;;;;;9.63;100.00;99746.25;5072247;28;20036;-80
2022/05/01 00:59:17;;;;;;;10.68;8.80;;;;;;;9.64;100.00;99741.84;5070532;28;20602;-79
2022/05/01 01:01:43;;;;;;;9.73;8.77;;;;;;;9.69;100.00;99744.91;5074422;28;20036;-80
2022/05/01 01:04:10;;;;;;;9.02;8.23;;;;;;;9.76;100.00;99740.78;5069853;28;20040;-80
2022/05/01 01:06:36;;;;;;;8.45;7.47;;;;;;;9.87;100.00;99732.75;5072036;28;20055;-80
2022/05/01 01:09:03;;;;;;;7.60;6.90;;;;;;;10.00;100.00;99733.38;5074924;28;20041;-80
2022/05/01 01:11:28;;;;;;;8.38;6.18;;;;;;;9.92;100.00;99738.47;5078315;28;20496;-80
2022/05/01 01:13:55;;;;;;;7.50;6.70;;;;;;;9.85;100.00;99739.97;5067661;28;20094;-80
2022/05/01 01:16:21;;;;;;;6.55;5.95;;;;;;;9.83;100.00;99737.47;5071987;28;20043;-78
2022/05/01 01:18:47;;;;;;;7.15;6.43;;;;;;;9.88;100.00;99731.81;5075543;28;20059;-79
2022/05/01 01:21:13;;;;;;;8.07;7.07;;;;;;;9.90;100.00;99735.13;5053909;28;20104;-79
2022/05/01 01:23:39;;;;;;;9.48;7.55;;;;;;;9.79;100.00;99738.69;5071437;28;20086;-80
2022/05/01 01:26:06;;;;;;;9.18;8.27;;;;;;;9.77;100.00;99727.47;5071211;28;20033;-79
2022/05/01 01:28:33;;;;;;;8.02;7.32;;;;;;;9.76;100.00;99740.78;5053573;28;20040;-78
2022/05/01 01:33:48;;;;;;;8.52;7.68;;;;;;;9.37;100.00;99745.84;5071374;28;20151;-80
2022/05/01 01:36:14;;;;;;;8.85;7.43;;;;;;;9.28;100.00;99741.38;5071294;28;20107;-79
2022/05/01 01:38:40;;;;;;;8.82;7.93;;;;;;;9.23;100.00;99733.03;5071178;28;20495;-79
2022/05/01 01:41:09;;;;;;;9.05;8.25;;;;;;;9.24;100.00;99734.72;5070761;28;20029;-79
2022/05/01 01:43:36;;;;;;;8.15;7.45;;;;;;;9.26;100.00;99737.19;5071231;28;20044;-80
2022/05/01 01:46:02;;;;;;;9.55;7.70;;;;;;;9.32;100.00;99740.13;5070719;28;20145;-79
2022/05/01 01:48:28;;;;;;;11.75;8.93;;;;;;;9.35;100.00;99732.00;5070884;28;20082;-79
2022/05/01 01:50:58;;;;;;;11.20;8.75;;;;;;;9.37;100.00;99735.31;5070790;28;20039;-80
2022/05/01 01:53:24;;;;;;;9.63;8.63;;;;;;;9.21;100.00;99734.94;5066863;28;20165;-80
2022/05/01 01:55:50;;;;;;;11.27;8.50;;;;;;;9.09;100.00;99740.41;5070426;28;20037;-80
2022/05/01 01:58:15;;;;;;;9.07;8.13;;;;;;;9.03;100.00;99732.06;5070245;28;20036;-80
2022/05/01 02:00:41;;;;;;;9.52;8.63;;;;;;;9.05;100.00;99734.59;5071045;28;20032;-80
2022/05/01 02:03:06;;;;;;;9.35;8.50;;;;;;;9.05;100.00;99734.59;5070596;28;20782;-81
2022/05/01 02:05:36;;;;;;;9.23;8.32;;;;;;;8.99;100.00;99743.00;5070806;28;20035;-80
2022/05/01 02:08:05;;;;;;;8.82;8.02;;;;;;;9.00;100.00;99739.41;5070510;28;20501;-80
2022/05/01 02:10:31;;;;;;;8.45;7.72;;;;;;;9.06;100.00;99735.41;5070703;28;20044;-80
2022/05/01 02:13:00;;;;;;;12.60;7.55;;;;;;;9.07;100.00;99737.09;5053226;28;20545;-80
2022/05/01 02:15:28;;;;;;;8.05;7.25;;;;;;;8.97;100.00;99737.00;5067410;28;20095;-79
2022/05/01 02:17:53;;;;;;;7.35;6.75;;;;;;;8.96;100.00;99732.69;5048367;28;20032;-80
2022/05/01 02:20:19;;;;;;;9.82;7.55;;;;;;;9.01;100.00;99731.34;5070627;28;20079;-80
2022/05/01 02:22:44;;;;;;;12.23;8.25;;;;;;;9.07;100.00;99727.41;5070445;28;20507;-80
2022/05/01 02:25:10;;;;;;;8.85;7.95;;;;;;;9.11;100.00;99733.22;5070487;28;20033;-79
2022/05/01 02:27:40;;;;;;;8.35;7.55;;;;;;;9.12;100.00;99727.84;5070515;28;20039;-80
2022/05/01 02:30:07;;;;;;;9.65;8.80;;;;;;;9.14;100.00;99728.53;5052151;28;20072;-78
2022/05/01 02:32:36;;;;;;;9.45;8.45;;;;;;;9.10;100.00;99740.28;5052327;28;20355;-79
2022/05/01 02:35:02;;;;;;;9.38;8.48;;;;;;;9.13;100.00;99726.06;5069641;28;20028;-79
2022/05/01 02:37:27;;;;;;;11.90;9.05;;;;;;;9.16;100.00;99731.88;5070459;28;20107;-79
2022/05/01 02:39:53;;;;;;;9.75;8.75;;;;;;;9.16;100.00;99731.88;5070120;28;20036;-80
2022/05/01 02:42:19;;;;;;;9.95;8.75;;;;;;;9.18;100.00;99729.97;5070264;28;20037;-79
2022/05/01 02:44:44;;;;;;;9.90;8.95;;;;;;;9.21;100.00;99727.06;5070050;28;20035;-80
2022/05/01 02:47:11;;;;;;;10.80;9.05;;;;;;;9.25;100.00;99725.81;5070097;28;20070;-81
2022/05/01 02:49:37;;;;;;;10.07;9.05;;;;;;;9.32;100.00;99729.59;5070205;28;20055;-81
2022/05/01 02:52:03;;;;;;;11.15;9.23;;;;;;;9.36;100.00;99728.41;5070057;28;20047;-81
2022/05/01 02:54:28;;;;;;;10.10;9.07;;;;;;;9.26;100.00;99732.75;5070406;28;20028;-81
2022/05/01 02:56:54;;;;;;;10.02;9.05;;;;;;;9.10;100.00;99737.66;5065968;28;20033;-81
2022/05/01 02:59:20;;;;;;;9.80;8.93;;;;;;;9.01;100.00;99733.19;5070244;28;20041;-81
2022/05/01 03:01:45;;;;;;;10.52;9.20;;;;;;;9.01;100.00;99733.19;5070159;28;20081;-81
2022/05/01 03:04:11;;;;;;;10.25;8.70;;;;;;;9.04;100.00;99731.13;5069864;28;20033;-81
2022/05/01 03:06:36;;;;;;;9.27;8.48;;;;;;;9.00;100.00;99728.88;5069787;28;20384;-82
2022/05/01 03:09:03;;;;;;;12.18;9.02;;;;;;;8.89;100.00;99734.19;5051884;28;20071;-82
2022/05/01 03:11:29;;;;;;;10.52;8.68;;;;;;;8.73;100.00;99725.88;5069774;28;20392;-82
2022/05/01 03:13:54;;;;;;;9.45;8.57;;;;;;;8.66;100.00;99730.00;5069725;28;20021;-82
2022/05/01 03:16:20;;;;;;;10.73;9.80;;;;;;;8.62;100.00;99732.88;5069825;28;20455;-81
2022/05/01 03:24:15;;;;;;;10.82;8.93;;;;;;;8.59;100.00;99733.16;5069868;28;20044;-82
2022/05/01 03:26:41;;;;;;;10.38;8.90;;;;;;;8.54;100.00;99735.28;5051759;28;20040;-81
2022/05/01 03:29:07;;;;;;;10.32;9.10;;;;;;;8.47;100.00;99734.16;5069290;28;20051;-82
2022/05/01 03:31:35;;;;;;;15.00;9.68;;;;;;;8.46;100.00;99726.38;5069835;28;20037;-82
2022/05/01 03:34:01;;;;;;;9.63;8.63;;;;;;;8.44;100.00;99734.38;5069159;28;20028;-81
2022/05/01 03:36:27;;;;;;;10.75;9.55;;;;;;;8.42;100.00;99731.06;5069664;28;20037;-81
2022/05/01 03:38:52;;;;;;;11.25;9.35;;;;;;;8.40;100.00;99730.34;5069346;28;20055;-81
2022/05/01 03:41:18;;;;;;;11.52;9.07;;;;;;;8.31;100.00;99725.81;5069452;28;20032;-82
2022/05/01 03:43:44;;;;;;;11.32;9.77;;;;;;;8.25;100.00;99725.47;5069564;28;20105;-82
2022/05/01 03:46:10;;;;;;;12.07;10.90;;;;;;;8.23;100.00;99730.84;5051552;28;20469;-82
2022/05/01 03:48:36;;;;;;;12.38;10.55;;;;;;;8.26;100.00;99721.84;5069253;28;20033;-82
2022/05/01 03:51:02;;;;;;;13.30;10.10;;;;;;;8.26;100.00;99725.31;5069004;28;20086;-82
2022/05/01 03:53:29;;;;;;;13.18;9.63;;;;;;;8.29;100.00;99719.81;5069412;28;20045;-81
2022/05/01 03:55:55;;;;;;;11.77;10.60;;;;;;;8.34;100.00;99724.75;5065131;28;20029;-82
2022/05/01 03:58:21;;;;;;;11.07;9.80;;;;;;;8.31;100.00;99723.19;5069454;28;20499;-82
2022/05/01 04:00:47;;;;;;;11.65;10.55;;;;;;;8.34;100.00;99720.31;5051389;28;20043;-82
2022/05/01 04:03:18;;;;;;;13.35;11.30;;;;;;;8.36;100.00;99723.66;5069328;28;20041;-82
2022/05/01 04:05:44;;;;;;;11.52;10.50;;;;;;;8.26;100.00;99720.06;5069721;28;20035;-83
2022/05/01 04:08:10;;;;;;;14.02;10.77;;;;;;;8.20;100.00;99720.56;5069280;28;20058;-82
2022/05/01 04:10:41;;;;;;;12.75;11.45;;;;;;;8.16;100.00;99724.41;5069526;28;20450;-81
2022/05/01 04:13:07;;;;;;;12.95;11.63;;;;;;;8.17;100.00;99720.81;5069056;28;20031;-82
2022/05/01 04:15:32;;;;;;;14.25;12.00;;;;;;;8.22;100.00;99716.00;5052115;28;20132;-82
2022/05/01 04:17:58;;;;;;;13.05;11.73;;;;;;;8.25;100.00;99717.56;5069746;28;20094;-82
2022/05/01 04:20:25;;;;;;;13.63;11.95;;;;;;;8.27;100.00;99721.72;5070175;28;20463;-81
2022/05/01 04:22:51;;;;;;;15.07;11.95;;;;;;;8.25;100.00;99726.28;5075795;28;20047;-82
2022/05/01 04:25:29;;;;;;;12.68;11.43;;;;;;;8.22;100.00;99730.00;5090596;28;20036;-80
2022/05/01 04:28:01;;;;;;;13.43;10.93;;;;;;;8.19;100.00;99734.66;5071000;28;20029;-81
2022/05/01 04:30:27;;;;;;;12.50;11.20;;;;;;;8.22;100.00;99723.91;5069449;28;20028;-81
2022/05/01 04:33:17;;;;;;;11.30;10.10;;;;;;;8.26;100.00;99733.19;5072057;28;20031;-82
2022/05/01 04:35:48;;;;;;;11.90;10.75;;;;;;;8.15;100.00;99738.50;5070679;28;20055;-81
2022/05/01 04:38:17;;;;;;;10.73;9.63;;;;;;;8.01;100.00;99736.16;5072212;28;20067;-82
2022/05/01 04:40:52;;;;;;;11.55;9.30;;;;;;;8.00;100.00;99734.47;5072365;28;20042;-81
2022/05/01 04:43:20;;;;;;;10.60;9.60;;;;;;;8.05;100.00;99742.81;5054228;28;20056;-81
2022/05/01 04:45:53;;;;;;;11.35;9.38;;;;;;;8.17;100.00;99742.69;5071953;28;20029;-82
2022/05/01 04:48:20;;;;;;;13.25;10.77;;;;;;;8.27;100.00;99737.50;5071924;28;20036;-81
2022/05/01 04:50:47;;;;;;;12.45;11.18;;;;;;;8.33;100.00;99749.34;5071526;28;20059;-82
2022/05/01 04:53:19;;;;;;;13.15;11.65;;;;;;;8.34;100.00;99749.25;5072100;28;20187;-81
2022/05/01 04:55:46;;;;;;;15.10;12.23;;;;;;;8.28;100.00;99749.69;5072052;28;20032;-82
2022/05/01 04:58:15;;;;;;;14.63;13.13;;;;;;;8.27;100.00;99748.03;5053958;28;20071;-82
2022/05/01 05:00:41;;;;;;;16.23;13.50;;;;;;;8.34;100.00;99749.25;5071954;28;20036;-81
2022/05/01 05:03:07;;;;;;;15.85;11.82;;;;;;;8.42;100.00;99752.09;5053376;28;20036;-81
2022/05/01 05:05:36;;;;;;;13.65;12.23;;;;;;;8.44;100.00;99754.56;5071604;28;20043;-81
2022/05/01 05:10:47;;;;;;;14.80;12.32;;;;;;;8.62;100.00;99756.56;5071743;28;20044;-82
2022/05/01 05:13:23;;;;;;;16.88;13.02;;;;;;;8.75;100.00;99759.00;5053626;28;20032;-82
2022/05/01 05:15:49;;;;;;;13.48;11.93;;;;;;;8.82;100.00;99760.19;5071544;28;20028;-81
2022/05/01 05:18:15;;;;;;;14.32;12.90;;;;;;;8.84;100.00;99760.88;5071537;28;20040;-82
2022/05/01 05:20:41;;;;;;;14.80;12.10;;;;;;;8.92;100.00;99760.25;5070820;28;20043;-82
2022/05/01 05:23:07;;;;;;;13.85;12.27;;;;;;;8.98;100.00;99770.28;5071314;28;20036;-82
2022/05/01 05:25:33;;;;;;;13.80;12.32;;;;;;;8.99;100.00;99766.69;5071625;28;20035;-82
2022/05/01 05:27:58;;;;;;;15.25;12.52;;;;;;;9.10;100.00;99769.25;5071262;28;20032;-82
2022/05/01 05:30:23;;;;;;;14.02;12.63;;;;;;;9.23;100.00;99775.16;5071380;28;20024;-82
2022/05/01 05:32:49;;;;;;;14.00;12.50;;;;;;;9.32;100.00;99774.38;5052184;28;20051;-81
2022/05/01 05:35:15;;;;;;;17.63;13.07;;;;;;;9.43;100.00;99784.84;5072020;28;20035;-82
2022/05/01 05:37:40;;;;;;;13.48;12.18;;;;;;;9.53;100.00;99784.06;5073404;28;20052;-82
2022/05/01 05:40:07;;;;;;;15.30;13.30;;;;;;;9.65;100.00;99785.66;5070994;28;20032;-82
2022/05/01 05:42:33;;;;;;;14.05;12.48;;;;;;;9.76;100.00;99794.31;5071272;28;20229;-82
2022/05/01 05:45:00;;;;;;;15.38;13.85;;;;;;;9.89;100.00;99788.81;5070849;28;20028;-82
2022/05/01 05:47:25;;;;;;;18.73;13.73;;;;;;;10.03;100.00;99793.72;5067179;28;20095;-82
2022/05/01 05:49:51;;;;;;;16.05;13.40;;;;;;;10.16;100.00;99797.00;5070362;28;20132;-82
2022/05/01 05:52:17;;;;;;;20.20;13.10;;;;;;;10.30;100.00;99792.31;5071460;28;20434;-82
2022/05/01 05:54:43;;;;;;;16.25;14.55;;;;;;;10.39;100.00;99796.78;5071189;28;20068;-82
2022/05/01 05:57:08;;;;;;;15.65;14.00;;;;;;;10.42;100.00;99796.50;5071054;28;20028;-82
2022/05/01 05:59:34;;;;;;;15.23;13.68;;;;;;;10.46;100.00;99797.91;5071351;28;20338;-82
2022/05/01 06:02:00;;;;;;;16.17;13.57;;;;;;;10.52;100.00;99800.84;5071959;28;20029;-82
2022/05/01 06:04:26;;;;;;;16.50;14.27;;;;;;;10.59;100.00;99795.84;5071309;28;20032;-80
2022/05/01 06:06:51;;;;;;;16.88;13.82;;;;;;;10.58;100.00;99796.81;5070728;28;20112;-81
2022/05/01 06:09:17;;;;;;;15.60;13.73;;;;;;;10.64;100.00;99802.38;5070695;28;20043;-81
2022/05/01 06:11:42;;;;;;;15.48;13.98;;;;;;;10.76;100.00;99795.16;5071097;28;20139;-82
2022/05/01 06:14:08;;;;;;;15.32;13.82;;;;;;;10.87;100.00;99792.38;5070681;28;20039;-83
2022/05/01 06:16:33;;;;;;;15.90;13.57;;;;;;;11.01;100.00;99799.06;5071367;28;20106;-81
2022/05/01 06:18:59;;;;;;;15.23;13.63;;;;;;;11.11;100.00;99788.50;5070611;28;20024;-82
2022/05/01 06:21:25;;;;;;;14.80;13.30;;;;;;;11.22;100.00;99802.38;5067086;28;20378;-81
2022/05/01 06:23:51;;;;;;;15.93;14.15;;;;;;;11.29;100.00;99800.00;5071251;28;20062;-82
2022/05/01 06:26:16;;;;;;;16.92;14.13;;;;;;;11.22;100.00;99801.53;5071939;28;20051;-82
2022/05/01 06:28:43;;;;;;;14.75;13.18;;;;;;;11.14;100.00;99809.31;5070592;28;20028;-82
2022/05/01 06:31:09;;;;;;;17.15;14.30;;;;;;;11.07;100.00;99804.59;5070035;28;20107;-76
2022/05/01 06:33:35;;;;;;;16.50;14.27;;;;;;;11.17;100.00;99809.06;5069774;28;20032;-77
2022/05/01 06:36:03;;;;;;;14.88;13.38;;;;;;;11.27;100.00;99804.59;5069571;28;20409;-77
2022/05/01 06:38:29;;;;;;;16.65;13.15;;;;;;;11.19;100.00;99807.13;5069958;28;20043;-76
2022/05/01 06:40:55;;;;;;;14.70;13.20;;;;;;;11.14;100.00;99815.44;5065663;28;20027;-75
2022/05/01 06:43:21;;;;;;;14.80;13.05;;;;;;;11.39;100.00;99814.03;5069516;28;20036;-76
2022/05/01 06:45:48;;;;;;;14.50;13.10;;;;;;;11.65;100.00;99815.09;5069749;28;20036;-77
2022/05/01 06:48:13;;;;;;;14.75;12.90;;;;;;;11.85;100.00;99814.06;5069879;28;20371;-77
2022/05/01 06:50:39;;;;;;;15.60;13.02;;;;;;;12.06;99.52;99813.88;5051111;28;20040;-78
2022/05/01 06:53:06;;;;;;;14.20;12.80;;;;;;;12.27;98.71;99816.28;5069446;28;20036;-76
2022/05/01 06:55:32;;;;;;;18.67;13.48;;;;;;;12.46;97.29;99810.03;5069487;28;20036;-78
2022/05/01 06:57:57;;;;;;;14.07;12.50;;;;;;;12.61;96.40;99809.38;5069573;28;20044;-76
2022/05/01 07:00:23;;;;;;;16.15;11.93;;;;;;;12.81;95.65;99815.38;5051743;28;20461;-75
2022/05/01 07:02:51;;;;;;;13.77;12.40;;;;;;;13.01;94.69;99816.06;5069357;28;20087;-76
2022/05/01 07:05:18;;;;;;;14.30;11.88;;;;;;;13.21;93.88;99811.44;5068987;28;20047;-76
2022/05/01 07:07:44;;;;;;;15.35;12.80;;;;;;;13.32;92.80;99814.69;5051435;28;20578;-77
2022/05/01 07:10:10;;;;;;;14.10;11.52;;;;;;;13.50;92.32;99812.84;5069359;28;20032;-76
2022/05/01 07:12:35;;;;;;;12.95;11.75;;;;;;;13.69;91.27;99811.81;5071708;28;20137;-75
2022/05/01 07:15:02;;;;;;;12.07;10.88;;;;;;;13.90;90.65;99808.81;5076065;28;20450;-76
2022/05/01 07:17:28;;;;;;;13.00;10.90;;;;;;;14.08;89.48;99809.53;5072593;28;20035;-76
2022/05/01 07:19:53;;;;;;;12.15;10.95;;;;;;;14.22;88.87;99814.25;5068633;28;20037;-76
2022/05/01 07:22:19;;;;;;;11.98;10.75;;;;;;;14.38;88.30;99810.00;5069044;28;20041;-76
2022/05/01 07:24:44;;;;;;;13.18;11.80;;;;;;;14.59;87.11;99808.59;5069297;28;20120;-76
2022/05/01 07:27:10;;;;;;;12.23;10.55;;;;;;;14.74;86.34;99808.78;5069189;28;20119;-77
2022/05/01 07:29:35;;;;;;;12.27;11.00;;;;;;;14.86;85.93;99810.13;5069569;28;20024;-78
2022/05/01 07:32:01;;;;;;;12.50;10.48;;;;;;;14.80;86.40;99813.44;5068972;28;20446;-77
2022/05/01 07:34:27;;;;;;;12.50;9.73;;;;;;;14.95;86.20;99808.34;5069281;28;20124;-78
2022/05/01 07:36:52;;;;;;;11.02;9.98;;;;;;;15.05;85.28;99807.19;5068877;28;20455;-79
2022/05/01 07:39:18;;;;;;;12.55;10.82;;;;;;;15.14;85.28;99808.81;5069399;28;20024;-76
2022/05/01 07:41:44;;;;;;;12.05;10.75;;;;;;;15.23;83.88;99806.19;5068879;28;20461;-77
2022/05/01 07:44:11;;;;;;;12.07;10.82;;;;;;;15.35;82.98;99807.50;5050400;28;20043;-77
2022/05/01 07:46:40;;;;;;;11.65;10.65;;;;;;;15.48;82.45;99802.53;5069383;28;20469;-78
2022/05/01 07:49:09;;;;;;;12.27;10.50;;;;;;;15.58;82.03;99803.19;5050364;28;20584;-78
2022/05/01 07:51:35;;;;;;;11.38;10.27;;;;;;;15.68;80.85;99801.16;5068174;28;20025;-79
2022/05/01 07:54:01;;;;;;;12.32;10.90;;;;;;;15.85;79.04;99805.44;5067922;28;20031;-79
2022/05/01 07:56:28;;;;;;;11.50;10.40;;;;;;;16.02;78.94;99795.63;5053229;28;20086;-80
2022/05/01 07:58:54;;;;;;;11.40;10.30;;;;;;;16.18;77.38;99800.03;5072566;28;20032;-79
2022/05/01 08:01:20;;;;;;;13.10;10.27;;;;;;;16.24;76.38;99794.03;5073043;28;20051;-78
2022/05/01 08:06:29;;;;;;;10.55;9.60;;;;;;;16.46;75.62;99787.91;5069469;28;20056;-78
2022/05/01 08:08:55;;;;;;;11.45;10.18;;;;;;;16.39;75.22;99784.28;5053860;28;20445;-79
2022/05/01 08:11:21;;;;;;;10.43;9.38;;;;;;;16.30;75.97;99783.50;5072894;28;20198;-87
2022/05/01 08:13:47;;;;;;;8.27;7.47;;;;;;;16.45;76.78;99785.41;5079127;28;20483;-84
2022/05/01 08:16:12;;;;;;;8.55;7.65;;;;;;;16.62;75.32;99785.19;5079506;28;20048;-84
2022/05/01 08:21:22;;;;;;;12.05;8.93;;;;;;;16.74;73.11;99781.09;5078406;28;20033;-86
2022/05/01 08:23:48;;;;;;;9.88;8.70;;;;;;;16.78;73.46;99787.75;5077351;28;20563;-84
2022/05/01 08:26:17;;;;;;;10.73;8.55;;;;;;;16.93;72.84;99786.97;5082356;28;20021;-86
2022/05/01 08:28:45;;;;;;;10.00;9.00;;;;;;;16.93;72.26;99784.31;5072364;28;20036;-86
2022/05/01 08:31:10;;;;;;;9.55;8.80;;;;;;;16.96;72.55;99789.31;5072837;28;20039;-84
2022/05/01 08:33:37;;;;;;;9.85;8.45;;;;;;;17.05;72.67;99793.56;5073148;28;20040;-86
2022/05/01 08:36:04;;;;;;;12.50;9.38;;;;;;;17.08;71.96;99787.88;5073165;28;20029;-84
2022/05/01 08:38:30;;;;;;;10.13;8.93;;;;;;;17.15;72.00;99783.47;5073904;28;20056;-87
2022/05/01 08:40:56;;;;;;;9.70;8.82;;;;;;;17.17;72.26;99781.47;5072113;28;20392;-84
2022/05/01 08:43:23;;;;;;;9.80;8.88;;;;;;;17.08;72.57;99779.88;4718102;28;9999886;-83
2022/05/01 08:45:59;;;;;;;35.38;15.73;;;;;;;17.22;72.98;99784.41;5071297;28;20039;-79
2022/05/01 08:48:34;;;;;;;12.13;9.57;;;;;;;17.22;71.33;99779.09;5063470;28;20036;-79
2022/05/01 08:51:01;;;;;;;9.88;8.63;;;;;;;17.23;71.12;99786.06;5048327;28;20511;-78
2022/05/01 08:53:37;;;;;;;10.97;9.02;;;;;;;17.33;70.62;99780.47;4620943;28;10002833;-79
2022/05/01 08:56:05;;;;;;;8.90;7.75;;;;;;;17.47;69.75;99779.69;5069698;28;20037;-80
2022/05/01 08:58:31;;;;;;;8.77;7.97;;;;;;;17.54;68.47;99784.13;5071062;28;20380;-80
2022/05/01 09:00:58;;;;;;;7.80;7.15;;;;;;;17.68;67.90;99773.66;5071343;28;20034;-78
2022/05/01 09:03:25;;;;;;;9.63;8.73;;;;;;;17.80;67.83;99782.88;5072059;28;20025;-80
2022/05/01 09:05:51;;;;;;;9.13;8.32;;;;;;;17.89;68.11;99781.78;5071147;28;20033;-79
2022/05/01 09:08:17;;;;;;;12.35;8.82;;;;;;;17.95;67.29;99781.06;5071498;28;20044;-80
2022/05/01 09:10:45;;;;;;;7.78;7.13;;;;;;;17.92;64.09;99778.75;5071569;28;20124;-79
2022/05/01 09:13:13;;;;;;;11.00;6.95;;;;;;;18.05;64.89;99783.44;5071657;28;20068;-80
2022/05/01 09:15:41;;;;;;;9.27;7.15;;;;;;;18.17;64.63;99781.94;5072100;28;20082;-81
2022/05/01 09:18:08;;;;;;;8.50;7.43;;;;;;;18.26;64.89;99788.88;5071752;28;20358;-79
2022/05/01 09:20:39;;;;;;;7.85;7.10;;;;;;;18.34;63.82;99792.25;5071775;28;20058;-78
2022/05/01 09:23:07;;;;;;;8.20;7.45;;;;;;;18.39;62.82;99784.50;5052397;28;20033;-74
2022/05/01 09:25:33;;;;;;;7.45;6.75;;;;;;;18.36;63.44;99784.06;5071373;28;20036;-77
2022/05/01 09:28:01;;;;;;;6.80;6.28;;;;;;;18.30;62.87;99798.97;5070234;28;20405;-73
2022/05/01 09:30:36;;;;;;;6.53;5.93;;;;;;;18.17;63.44;99788.13;5067223;28;20024;-74
2022/05/01 09:33:03;;;;;;;7.90;7.25;;;;;;;18.06;64.59;99783.25;5070567;28;20070;-76
2022/05/01 09:35:31;;;;;;;7.38;6.78;;;;;;;18.18;64.43;99780.94;5076469;28;20108;-74
2022/05/01 09:38:24;;;;;;;7.28;6.57;;;;;;;18.21;65.26;99764.53;5078206;28;20036;-76
2022/05/01 09:40:57;;;;;;;8.30;6.65;;;;;;;18.21;65.25;99781.38;5047288;28;20044;-77
2022/05/01 09:43:35;;;;;;;7.28;6.68;;;;;;;18.24;59.55;99780.19;5074502;28;20086;-73
2022/05/01 09:46:20;;;;;;;6.95;6.35;;;;;;;18.25;60.63;99777.34;5071198;28;20039;-71
2022/05/01 09:49:06;;;;;;;6.90;6.30;;;;;;;18.30;61.79;99772.28;5071623;28;20462;-73
2022/05/01 09:51:38;;;;;;;8.07;6.57;;;;;;;18.34;61.29;99776.22;5075696;28;20072;-72
2022/05/01 09:54:06;;;;;;;6.70;5.78;;;;;;;18.42;61.91;99768.09;5056043;28;20064;-71
2022/05/01 09:56:52;;;;;;;8.15;7.05;;;;;;;18.47;61.22;99764.03;5077770;28;20143;-74
2022/05/01 09:59:20;;;;;;;7.90;7.03;;;;;;;18.51;61.13;99770.66;5083654;28;20037;-75
2022/05/01 10:02:03;;;;;;;6.05;5.47;;;;;;;18.59;59.46;99767.91;5057138;28;20028;-75
2022/05/01 10:04:31;;;;;;;7.20;6.22;;;;;;;18.67;58.52;99770.47;5075601;28;20116;-75
2022/05/01 10:06:58;;;;;;;6.15;5.65;;;;;;;18.73;58.12;99770.50;5066096;28;20043;-75
2022/05/01 10:09:26;;;;;;;6.25;5.65;;;;;;;18.83;58.41;99772.06;5075087;28;20388;-74
2022/05/01 10:11:54;;;;;;;7.60;6.82;;;;;;;18.88;57.41;99770.47;5077115;28;20041;-76
2022/05/01 10:14:20;;;;;;;6.60;6.00;;;;;;;18.91;57.76;99770.06;5076303;28;20396;-76
2022/05/01 10:16:47;;;;;;;6.32;5.82;;;;;;;18.98;58.38;99768.28;5076671;28;20090;-75
2022/05/01 10:19:19;;;;;;;6.57;6.05;;;;;;;19.02;57.96;99769.59;5073187;28;20036;-77
2022/05/01 10:21:50;;;;;;;6.90;5.68;;;;;;;19.15;58.04;99761.66;5070365;28;20025;-77
2022/05/01 10:24:17;;;;;;;9.70;7.22;;;;;;;19.23;57.64;99753.50;5071912;28;20472;-72
2022/05/01 10:27:02;;;;;;;6.55;5.93;;;;;;;19.23;57.74;99748.16;5070687;28;20037;-73
2022/05/01 10:32:21;;;;;;;6.10;5.60;;;;;;;19.30;57.33;99744.69;5066079;28;20038;-74
2022/05/01 10:32:45;;;;;;;8.13;5.97;;;;;;;19.45;57.73;99743.59;5069628;28;20058;-74
2022/05/01 10:35:20;;;;;;;6.95;6.22;;;;;;;19.52;56.51;99740.97;5069962;28;20044;-74
2022/05/01 10:38:10;;;;;;;7.13;6.43;;;;;;;19.42;55.31;99732.44;5069621;28;20029;-75
2022/05/01 10:40:43;;;;;;;6.73;6.07;;;;;;;19.43;56.08;99736.78;5067502;28;20067;-74
2022/05/01 10:43:21;;;;;;;6.90;6.20;;;;;;;19.45;54.67;99729.34;5070316;28;20508;-74
2022/05/01 10:45:46;;;;;;;7.18;6.40;;;;;;;19.26;55.33;99720.19;5070474;28;20036;-76
2022/05/01 10:48:15;;;;;;;6.20;5.60;;;;;;;19.38;55.68;99717.81;5077302;28;20077;-73
2022/05/01 10:50:40;;;;;;;7.50;5.35;;;;;;;19.55;55.19;99705.81;5075489;28;20054;-74
2022/05/01 10:53:08;;;;;;;6.28;5.78;;;;;;;19.74;54.98;99709.59;5073663;28;20036;-73
2022/05/01 10:56:20;;;;;;;6.38;5.78;;;;;;;19.95;54.74;99710.34;4961274;28;10000810;-74
2022/05/01 10:58:45;;;;;;;5.97;5.38;;;;;;;20.04;53.90;99706.44;5072755;28;20660;-74
2022/05/01 11:01:10;;;;;;;7.72;5.90;;;;;;;20.04;53.88;99706.44;5071682;28;20165;-74
2022/05/01 11:03:36;;;;;;;5.70;5.13;;;;;;;20.16;54.31;99703.19;5071065;28;20039;-73
2022/05/01 11:06:01;;;;;;;6.22;5.63;;;;;;;20.32;53.42;99698.31;5071916;28;20388;-72
2022/05/01 11:08:30;;;;;;;7.65;6.85;;;;;;;20.41;53.43;99693.63;5075548;28;20106;-72
2022/05/01 11:10:59;;;;;;;6.18;5.57;;;;;;;20.49;53.32;99693.44;5068706;28;20040;-74
2022/05/01 11:13:36;;;;;;;6.38;5.88;;;;;;;20.66;53.25;99693.88;5066694;28;20036;-74
2022/05/01 11:16:03;;;;;;;6.57;6.07;;;;;;;20.70;52.20;99687.88;5065170;28;20068;-74
2022/05/01 11:18:33;;;;;;;8.60;6.30;;;;;;;20.56;52.07;99677.38;5069396;28;20071;-74
2022/05/01 11:21:22;;;;;;;6.43;5.67;;;;;;;20.41;52.86;99680.22;5062556;28;20040;-74
2022/05/01 11:24:00;;;;;;;6.32;5.15;;;;;;;20.27;53.82;99667.78;5058830;28;20048;-74
2022/05/01 11:26:26;;;;;;;5.20;4.75;;;;;;;20.06;53.30;99666.06;5062725;28;20049;-74
2022/05/01 11:29:19;;;;;;;5.35;4.65;;;;;;;20.09;52.50;99672.91;5048301;28;20033;-75
2022/05/01 11:31:46;;;;;;;4.00;3.72;;;;;;;20.31;52.49;99666.34;5067583;28;20108;-74
2022/05/01 11:34:24;;;;;;;4.97;4.47;;;;;;;20.45;51.83;99665.38;5070185;28;20147;-75
2022/05/01 11:36:53;;;;;;;4.40;4.10;;;;;;;20.71;51.48;99669.94;5070458;28;20041;-74
2022/05/01 11:39:42;;;;;;;5.38;4.88;;;;;;;20.83;50.42;99658.41;5071696;28;20387;-74
2022/05/01 11:42:35;;;;;;;4.43;4.13;;;;;;;20.91;49.18;99659.25;5067856;28;20028;-73
2022/05/01 11:45:03;;;;;;;4.43;4.03;;;;;;;21.14;48.60;99654.28;5066762;28;20033;-75
2022/05/01 11:47:32;;;;;;;4.78;3.78;;;;;;;21.27;46.53;99648.88;5075964;28;20028;-74
2022/05/01 11:49:58;;;;;;;4.25;3.85;;;;;;;21.15;45.27;99646.00;5066438;28;20051;-74